createdAt,value
2023-04-03T00:00:08.580Z,74.1
2023-04-03T00:05:08.675Z,74.06
2023-04-03T00:10:08.785Z,74.09
2023-04-03T00:15:08.800Z,74.07
2023-04-03T00:20:08.859Z,74.09
2023-04-03T00:25:08.906Z,74.09
2023-04-03T00:30:08.960Z,74.09
2023-04-03T00:35:08.032Z,74.11
2023-04-03T00:40:08.104Z,74.11
2023-04-03T00:45:08.208Z,74.11
2023-04-03T00:50:08.243Z,74.12
2023-04-03T00:55:08.455Z,74.13
2023-04-03T01:00:08.502Z,74.12
2023-04-03T01:05:08.569Z,74.11
2023-04-03T01:10:08.659Z,74.13
2023-04-03T01:15:08.757Z,74.14
2023-04-03T01:20:08.835Z,74.14
2023-04-03T01:25:08.925Z,74.14
2023-04-03T01:30:08.973Z,74.11
2023-04-03T01:35:07.996Z,74.15
2023-04-03T01:40:08.032Z,74.16
2023-04-03T01:45:08.095Z,74.16
2023-04-03T01:50:08.124Z,74.16
2023-04-03T01:55:08.180Z,74.15
2023-04-03T02:00:08.292Z,74.16
2023-04-03T02:05:08.341Z,74.16
2023-04-03T02:10:08.436Z,74.16
2023-04-03T02:15:08.467Z,74.16
2023-04-03T02:20:08.545Z,74.17
2023-04-03T02:25:08.613Z,74.17
2023-04-03T02:30:08.669Z,74.18
2023-04-03T02:35:08.712Z,74.17
2023-04-03T02:40:08.834Z,74.17
2023-04-03T02:45:08.982Z,74.17
2023-04-03T02:50:08.063Z,74.18
2023-04-03T02:55:08.109Z,74.19
2023-04-03T03:00:08.116Z,74.2
2023-04-03T03:05:08.224Z,74.2
2023-04-03T03:10:08.282Z,74.2
2023-04-03T03:15:08.269Z,74.21
2023-04-03T03:20:08.303Z,74.22
2023-04-03T03:25:08.374Z,74.23
2023-04-03T03:30:08.392Z,74.23
2023-04-03T03:35:08.464Z,74.23
2023-04-03T03:40:08.523Z,74.24
2023-04-03T03:45:08.566Z,74.24
2023-04-03T03:50:08.591Z,74.25
2023-04-03T03:55:08.646Z,74.26
2023-04-03T04:00:08.668Z,74.26
2023-04-03T04:05:02.802Z,74.25
2023-04-03T04:10:03.067Z,74.28
2023-04-03T04:15:02.303Z,74.28
2023-04-03T04:20:02.515Z,74.28
2023-04-03T04:25:02.708Z,74.28
2023-04-03T04:30:03.065Z,74.29
2023-04-03T04:35:02.596Z,74.28
2023-04-03T04:40:02.808Z,74.27
2023-04-03T04:45:02.936Z,74.27
2023-04-03T04:50:02.126Z,74.28
2023-04-03T04:55:02.406Z,74.29
2023-04-03T05:00:02.576Z,74.3
2023-04-03T05:05:05.045Z,74.3
2023-04-03T05:10:02.512Z,74.32
2023-04-03T05:15:02.736Z,74.3
2023-04-03T05:20:03.024Z,74.33
2023-04-03T05:25:02.177Z,74.32
2023-04-03T05:30:02.311Z,74.35
2023-04-03T05:35:02.804Z,74.35
2023-04-03T05:40:03.017Z,74.35
2023-04-03T05:45:02.155Z,74.47
2023-04-03T05:50:02.330Z,74.53
2023-04-03T05:55:02.498Z,74.56
2023-04-03T06:00:02.721Z,74.58
2023-04-03T06:05:02.939Z,74.62
2023-04-03T06:10:02.164Z,74.55
2023-04-03T06:15:02.280Z,74.56
2023-04-03T06:20:02.428Z,74.56
2023-04-03T06:25:02.560Z,74.58
2023-04-03T06:30:02.738Z,74.58
2023-04-03T06:35:02.888Z,74.56
2023-04-03T06:40:03.108Z,74.55
2023-04-03T06:45:02.361Z,74.55
2023-04-03T06:50:02.587Z,74.54
2023-04-03T06:55:02.906Z,74.49
2023-04-03T07:00:03.136Z,74.46
2023-04-03T07:05:02.420Z,74.45
2023-04-03T07:10:02.678Z,74.42
2023-04-03T07:15:02.839Z,74.42
2023-04-03T07:20:03.121Z,74.38
2023-04-03T07:25:02.335Z,74.35
2023-04-03T07:30:02.580Z,74.32
2023-04-03T07:35:03.939Z,74.31
2023-04-03T07:40:02.252Z,74.31
2023-04-03T07:45:02.380Z,74.24
2023-04-03T07:50:02.528Z,74.19
2023-04-03T07:55:02.652Z,74.17
2023-04-03T08:00:02.915Z,74.16
2023-04-03T08:05:03.220Z,74.09
2023-04-03T08:10:02.498Z,74.09
2023-04-03T08:15:02.619Z,74.06
2023-04-03T08:20:02.862Z,74.01
2023-04-03T08:25:03.038Z,73.96
2023-04-03T08:30:02.200Z,73.91
2023-04-03T08:35:02.322Z,73.85
2023-04-03T08:40:02.515Z,73.8
2023-04-03T08:45:02.873Z,73.8
2023-04-03T08:50:03.015Z,73.67
2023-04-03T08:55:02.176Z,73.62
2023-04-03T09:00:02.418Z,73.62
2023-04-03T09:05:02.757Z,73.48
2023-04-03T09:10:03.004Z,73.43
2023-04-03T09:15:02.223Z,73.37
2023-04-03T09:20:02.449Z,73.29
2023-04-03T09:25:02.633Z,73.21
2023-04-03T09:30:02.770Z,73.16
2023-04-03T09:35:09.559Z,73.08
2023-04-03T09:40:04.672Z,73.01
2023-04-03T09:45:04.518Z,72.93
2023-04-03T09:50:02.690Z,72.9
2023-04-03T09:55:02.827Z,72.81
2023-04-03T10:00:02.972Z,72.72
2023-04-03T10:10:02.518Z,72.6
2023-04-03T10:15:02.665Z,72.6
2023-04-03T10:20:02.934Z,72.6
2023-04-03T10:25:02.158Z,72.44
2023-04-03T10:30:02.242Z,72.44
2023-04-03T10:35:04.962Z,72.32
2023-04-03T10:40:02.618Z,72.28
2023-04-03T10:45:02.754Z,72.22
2023-04-03T10:50:02.894Z,72.17
2023-04-03T10:55:03.025Z,72.09
2023-04-03T11:00:02.146Z,72.09
2023-04-03T11:05:12.585Z,72.0
2023-04-03T11:10:03.073Z,71.93
2023-04-03T11:15:02.458Z,71.9
2023-04-03T11:20:02.972Z,71.86
2023-04-03T11:25:02.170Z,71.8
2023-04-03T11:30:02.585Z,71.75
2023-04-03T11:35:02.787Z,71.66
2023-04-03T11:40:03.206Z,71.6
2023-04-03T11:45:02.394Z,71.5
2023-04-03T11:50:05.519Z,71.43
2023-04-03T11:55:02.935Z,71.38
2023-04-03T12:00:02.256Z,71.2
2023-04-03T12:05:02.526Z,71.06
2023-04-03T12:10:03.510Z,70.89
2023-04-03T12:15:02.849Z,70.7
2023-04-03T12:20:03.399Z,70.49
2023-04-03T12:25:02.812Z,70.23
2023-04-03T12:30:03.376Z,70.0
2023-04-03T12:35:02.685Z,69.85
2023-04-03T12:40:02.966Z,69.81
2023-04-03T12:45:02.360Z,69.74
2023-04-03T12:50:02.742Z,69.72
2023-04-03T12:55:03.212Z,69.7
2023-04-03T13:00:02.386Z,69.73
2023-04-03T13:05:02.789Z,69.73
2023-04-03T13:10:03.141Z,69.75
2023-04-03T13:15:02.559Z,69.68
2023-04-03T13:20:02.671Z,69.66
2023-04-03T13:25:04.095Z,69.66
2023-04-03T13:30:02.391Z,69.66
2023-04-03T13:35:15.720Z,69.59
2023-04-03T13:40:02.665Z,69.59
2023-04-03T13:45:02.924Z,69.59
2023-04-03T13:50:02.212Z,69.81
2023-04-03T13:55:04.211Z,69.92
2023-04-03T14:00:03.081Z,69.99
2023-04-03T14:05:02.468Z,69.99
2023-04-03T14:10:02.838Z,70.14
2023-04-03T14:15:03.139Z,70.21
2023-04-03T14:20:02.691Z,70.26
2023-04-03T14:25:02.912Z,70.33
2023-04-03T14:30:03.963Z,70.35
2023-04-03T14:35:02.330Z,70.4
2023-04-03T14:40:02.836Z,70.46
2023-04-03T14:45:03.207Z,70.46
2023-04-03T14:50:03.181Z,70.55
2023-04-03T14:55:02.741Z,70.61
2023-04-03T15:00:03.355Z,70.65
2023-04-03T15:05:02.705Z,70.65
2023-04-03T15:10:03.668Z,70.77
2023-04-03T15:15:04.047Z,70.82
2023-04-03T15:20:02.623Z,70.88
2023-04-03T15:25:03.114Z,70.88
2023-04-03T15:30:02.499Z,70.98
2023-04-03T15:35:03.007Z,71.05
2023-04-03T15:40:02.577Z,71.13
2023-04-03T15:45:03.566Z,71.2
2023-04-03T15:50:02.993Z,71.26
2023-04-03T15:55:02.400Z,71.34
2023-04-03T16:00:02.719Z,71.38
2023-04-03T16:05:03.402Z,71.45
2023-04-03T16:10:02.762Z,71.51
2023-04-03T16:15:03.360Z,71.58
2023-04-03T16:20:02.689Z,71.61
2023-04-03T16:25:03.465Z,71.65
2023-04-03T16:30:02.856Z,71.65
2023-04-03T16:35:03.483Z,71.74
2023-04-03T16:40:02.910Z,71.75
2023-04-03T16:45:03.418Z,71.78
2023-04-03T16:50:02.846Z,71.78
2023-04-03T16:55:03.331Z,71.82
2023-04-03T17:00:02.729Z,71.84
2023-04-03T17:05:03.198Z,71.85
2023-04-03T17:10:02.804Z,71.86
2023-04-03T17:15:03.069Z,71.87
2023-04-03T17:20:02.958Z,71.88
2023-04-03T17:25:02.339Z,71.88
2023-04-03T17:30:02.891Z,71.91
2023-04-03T17:35:03.337Z,71.94
2023-04-03T17:40:03.020Z,71.96
2023-04-03T17:45:02.463Z,71.99
2023-04-03T17:50:02.961Z,71.98
2023-04-03T17:55:02.557Z,72.0
2023-04-03T18:00:03.225Z,72.0
2023-04-03T18:05:02.926Z,72.03
2023-04-03T18:10:03.788Z,72.03
2023-04-03T18:15:03.461Z,72.07
2023-04-03T18:20:02.829Z,72.08
2023-04-03T18:25:03.556Z,72.08
2023-04-03T18:30:03.347Z,72.08
2023-04-03T18:35:02.728Z,72.13
2023-04-03T18:40:03.217Z,72.13
2023-04-03T18:45:02.654Z,72.13
2023-04-03T18:50:03.172Z,72.17
2023-04-03T18:55:03.069Z,72.2
2023-04-03T19:00:02.650Z,72.23
2023-04-03T19:05:03.330Z,72.22
2023-04-03T19:10:03.090Z,72.26
2023-04-03T19:15:02.536Z,72.26
2023-04-03T19:20:02.867Z,72.27
2023-04-03T19:25:03.551Z,72.29
2023-04-03T19:30:03.024Z,72.3
2023-04-03T19:35:02.516Z,72.3
2023-04-03T19:40:02.883Z,72.34
2023-04-03T19:45:03.252Z,72.34
2023-04-03T19:50:02.525Z,72.36
2023-04-03T19:55:02.930Z,72.37
2023-04-03T20:00:03.384Z,72.4
2023-04-03T20:05:02.845Z,72.4
2023-04-03T20:10:03.443Z,72.4
2023-04-03T20:15:02.853Z,72.42
2023-04-03T20:20:03.437Z,72.43
2023-04-03T20:25:06.352Z,72.45
2023-04-03T20:30:04.214Z,72.44
2023-04-03T20:35:04.600Z,72.47
2023-04-03T20:40:03.281Z,72.46
2023-04-03T20:45:02.678Z,72.47
2023-04-03T20:50:03.058Z,72.48
2023-04-03T20:55:02.528Z,72.5
2023-04-03T21:00:02.921Z,72.51
2023-04-03T21:05:16.003Z,72.53
2023-04-03T21:10:08.151Z,72.53
2023-04-03T21:15:08.273Z,72.55
2023-04-03T21:20:08.427Z,72.56
2023-04-03T21:25:08.536Z,72.58
2023-04-03T21:30:08.653Z,72.58
2023-04-03T21:35:08.808Z,72.59
2023-04-03T21:40:08.141Z,72.6
2023-04-03T21:45:08.292Z,72.6
2023-04-03T21:50:08.455Z,72.61
2023-04-03T21:55:08.799Z,72.63
2023-04-03T22:00:11.592Z,72.63
2023-04-03T22:05:08.858Z,72.63
2023-04-03T22:10:09.110Z,72.64
2023-04-03T22:15:08.279Z,72.63
2023-04-03T22:20:08.432Z,72.66
2023-04-03T22:25:08.535Z,72.66
2023-04-03T22:30:08.656Z,72.68
2023-04-03T22:35:08.790Z,72.69
2023-04-03T22:40:08.915Z,72.7
2023-04-03T22:45:08.079Z,72.7
2023-04-03T22:50:08.225Z,72.7
2023-04-03T22:55:18.499Z,72.7
2023-04-03T23:01:12.981Z,72.73
2023-04-03T23:05:08.114Z,72.74
2023-04-03T23:10:08.112Z,72.77
2023-04-03T23:15:08.251Z,72.74
2023-04-03T23:20:08.425Z,72.77
2023-04-03T23:25:08.517Z,72.77
2023-04-03T23:30:08.622Z,72.79
2023-04-03T23:35:08.743Z,72.79
2023-04-03T23:40:08.896Z,72.78
2023-04-03T23:45:09.016Z,72.82
2023-04-03T23:50:08.169Z,72.79
2023-04-03T23:55:08.289Z,72.81
